createdAt,value
2022-07-30T00:01:36.531Z,5.88
2022-07-30T00:04:04.153Z,5.30
2022-07-30T00:06:32.614Z,5.85
2022-07-30T00:08:59.824Z,6.00
2022-07-30T00:11:28.317Z,5.93
2022-07-30T00:13:56.023Z,6.43
2022-07-30T00:16:23.351Z,6.10
2022-07-30T00:18:50.667Z,5.80
2022-07-30T00:21:34.696Z,6.20
2022-07-30T00:24:04.882Z,6.45
2022-07-30T00:26:31.988Z,7.32
2022-07-30T00:28:59.567Z,7.13
2022-07-30T00:31:26.939Z,7.53
2022-07-30T00:33:54.726Z,7.30
2022-07-30T00:36:23.959Z,7.60
2022-07-30T00:38:52.048Z,8.27
2022-07-30T00:41:20.301Z,8.20
2022-07-30T00:43:47.836Z,8.38
2022-07-30T00:46:15.388Z,8.18
2022-07-30T00:48:43.466Z,8.35
2022-07-30T00:51:10.756Z,8.63
2022-07-30T00:53:38.868Z,8.57
2022-07-30T00:56:06.315Z,9.07
2022-07-30T00:58:33.731Z,8.73
2022-07-30T01:01:01.850Z,9.43
2022-07-30T01:03:29.088Z,9.15
2022-07-30T01:05:56.283Z,10.55
2022-07-30T01:08:23.407Z,10.10
2022-07-30T01:10:52.432Z,9.68
2022-07-30T01:13:19.528Z,10.20
2022-07-30T01:15:47.881Z,10.27
2022-07-30T01:18:17.361Z,9.77
2022-07-30T01:21:05.242Z,10.13
2022-07-30T01:23:43.271Z,10.40
2022-07-30T01:26:19.650Z,10.18
2022-07-30T01:28:51.984Z,10.52
2022-07-30T01:31:21.816Z,9.90
2022-07-30T01:33:51.405Z,11.02
2022-07-30T01:36:22.970Z,10.57
2022-07-30T01:38:52.306Z,10.15
2022-07-30T01:41:20.522Z,9.95
2022-07-30T01:43:47.940Z,10.88
2022-07-30T01:46:18.647Z,13.00
2022-07-30T01:48:49.876Z,12.85
2022-07-30T01:51:19.667Z,11.38
2022-07-30T01:53:53.477Z,11.43
2022-07-30T01:56:26.112Z,11.52
2022-07-30T01:58:58.164Z,12.18
2022-07-30T02:01:31.000Z,12.07
2022-07-30T02:04:02.996Z,12.93
2022-07-30T02:06:47.224Z,11.80
2022-07-30T02:09:27.857Z,12.57
2022-07-30T02:12:15.590Z,13.07
2022-07-30T02:14:53.647Z,13.98
2022-07-30T02:17:34.763Z,14.20
2022-07-30T02:20:13.372Z,13.57
2022-07-30T02:22:47.348Z,14.10
2022-07-30T02:25:20.650Z,13.60
2022-07-30T02:27:55.978Z,13.85
2022-07-30T02:30:30.159Z,13.88
2022-07-30T02:33:08.427Z,13.57
2022-07-30T02:35:38.000Z,13.73
2022-07-30T02:38:09.121Z,12.10
2022-07-30T02:40:41.829Z,13.68
2022-07-30T02:43:10.265Z,13.98
2022-07-30T02:45:38.161Z,14.00
2022-07-30T02:48:10.317Z,13.18
2022-07-30T02:50:40.134Z,13.85
2022-07-30T02:53:12.308Z,13.07
2022-07-30T02:55:43.544Z,14.10
2022-07-30T02:58:19.439Z,13.70
2022-07-30T03:00:49.522Z,14.88
2022-07-30T03:03:18.100Z,14.68
2022-07-30T03:05:50.192Z,15.00
2022-07-30T03:08:20.016Z,14.82
2022-07-30T03:10:50.193Z,15.75
2022-07-30T03:13:19.837Z,15.15
2022-07-30T03:15:51.112Z,15.48
2022-07-30T03:18:23.354Z,15.38
2022-07-30T03:20:54.672Z,13.95
2022-07-30T03:23:23.916Z,15.18
2022-07-30T03:26:01.532Z,13.85
2022-07-30T03:28:37.591Z,15.07
2022-07-30T03:31:06.246Z,16.02
2022-07-30T03:33:38.797Z,15.98
2022-07-30T03:36:08.564Z,12.15
2022-07-30T03:38:38.887Z,14.70
2022-07-30T03:41:08.075Z,15.77
2022-07-30T03:43:36.129Z,15.70
2022-07-30T03:46:09.573Z,14.82
2022-07-30T03:48:42.581Z,16.08
2022-07-30T03:51:10.738Z,14.40
2022-07-30T03:53:42.131Z,14.80
2022-07-30T03:56:27.976Z,14.50
2022-07-30T03:59:06.317Z,13.75
2022-07-30T04:01:37.559Z,13.70
2022-07-30T04:04:25.418Z,13.65
2022-07-30T04:06:52.526Z,13.30
2022-07-30T04:09:20.488Z,14.10
2022-07-30T04:11:48.812Z,13.93
2022-07-30T04:14:18.038Z,12.65
2022-07-30T04:16:57.660Z,11.65
2022-07-30T04:19:43.611Z,12.07
2022-07-30T04:24:45.181Z,10.30
2022-07-30T04:27:12.742Z,11.05
2022-07-30T04:29:41.589Z,10.38
2022-07-30T04:32:11.948Z,10.20
2022-07-30T04:34:58.192Z,10.68
2022-07-30T04:37:43.606Z,10.68
2022-07-30T04:40:11.009Z,10.13
2022-07-30T04:42:38.095Z,9.82
2022-07-30T04:45:11.565Z,10.82
2022-07-30T04:47:49.776Z,9.88
2022-07-30T04:50:39.188Z,9.40
2022-07-30T04:53:10.483Z,10.40
2022-07-30T04:55:46.839Z,10.55
2022-07-30T04:58:18.782Z,10.82
2022-07-30T05:00:49.133Z,10.48
2022-07-30T05:03:21.983Z,9.65
2022-07-30T05:05:57.289Z,10.50
2022-07-30T05:08:27.136Z,10.52
2022-07-30T05:10:55.437Z,10.63
2022-07-30T05:13:27.536Z,11.13
2022-07-30T05:16:02.882Z,10.68
2022-07-30T05:18:29.959Z,9.73
2022-07-30T05:20:57.355Z,10.10
2022-07-30T05:23:51.651Z,10.23
2022-07-30T05:26:31.251Z,10.65
2022-07-30T05:29:02.132Z,11.13
2022-07-30T05:31:43.807Z,11.38
2022-07-30T05:34:12.496Z,12.07
2022-07-30T05:36:45.165Z,10.25
2022-07-30T05:39:16.464Z,11.68
2022-07-30T05:42:04.974Z,11.23
2022-07-30T05:44:36.194Z,10.57
2022-07-30T05:47:03.622Z,9.35
2022-07-30T05:49:31.412Z,9.85
2022-07-30T05:52:09.922Z,8.93
2022-07-30T05:54:37.745Z,8.45
2022-07-30T05:57:19.911Z,8.35
2022-07-30T05:59:47.660Z,7.88
2022-07-30T06:02:25.218Z,7.85
2022-07-30T06:05:15.619Z,7.65
2022-07-30T06:07:43.880Z,8.93
2022-07-30T06:10:11.551Z,10.45
2022-07-30T06:12:39.033Z,9.57
2022-07-30T06:15:07.181Z,8.55
2022-07-30T06:17:57.100Z,9.00
2022-07-30T06:20:49.529Z,11.18
2022-07-30T06:23:35.440Z,10.73
2022-07-30T06:26:22.755Z,10.18
2022-07-30T06:28:50.620Z,11.23
2022-07-30T06:31:24.066Z,11.02
2022-07-30T06:33:52.083Z,11.23
2022-07-30T06:36:20.193Z,11.52
2022-07-30T06:38:54.550Z,13.73
2022-07-30T06:41:33.481Z,13.35
2022-07-30T06:44:00.753Z,11.98
2022-07-30T06:46:48.744Z,10.25
2022-07-30T06:49:20.207Z,12.10
2022-07-30T06:51:47.813Z,12.10
2022-07-30T06:54:14.964Z,12.02
2022-07-30T06:57:04.378Z,12.77
2022-07-30T06:59:32.727Z,12.00
2022-07-30T07:02:29.267Z,10.52
2022-07-30T07:05:09.237Z,9.60
2022-07-30T07:07:42.488Z,9.75
2022-07-30T07:10:14.307Z,9.88
2022-07-30T07:12:57.508Z,9.35
2022-07-30T07:15:37.087Z,9.55
2022-07-30T07:18:07.557Z,9.15
2022-07-30T07:20:37.473Z,8.23
2022-07-30T07:23:09.007Z,8.77
2022-07-30T07:25:39.920Z,7.95
2022-07-30T07:28:11.844Z,7.57
2022-07-30T07:30:45.236Z,6.43
2022-07-30T07:33:15.467Z,6.05
2022-07-30T07:35:49.368Z,6.40
2022-07-30T07:38:25.833Z,6.00
2022-07-30T07:40:54.902Z,5.45
2022-07-30T07:43:22.303Z,5.40
2022-07-30T07:45:50.315Z,6.32
2022-07-30T07:48:19.191Z,5.53
2022-07-30T07:50:46.461Z,5.80
2022-07-30T07:53:33.140Z,4.57
2022-07-30T07:56:00.613Z,5.13
2022-07-30T07:58:28.107Z,4.30
2022-07-30T08:00:59.674Z,4.43
2022-07-30T08:03:48.121Z,4.35
2022-07-30T08:06:42.098Z,4.72
2022-07-30T08:09:40.854Z,4.78
2022-07-30T08:12:32.627Z,4.22
2022-07-30T08:15:21.843Z,3.60
2022-07-30T08:18:10.579Z,3.90
2022-07-30T08:21:00.619Z,3.60
2022-07-30T08:23:32.035Z,3.40
2022-07-30T08:25:59.477Z,3.63
2022-07-30T08:28:36.019Z,3.65
2022-07-30T08:31:04.882Z,3.63
2022-07-30T08:33:32.069Z,3.55
2022-07-30T08:36:04.387Z,2.80
2022-07-30T08:38:40.128Z,2.95
2022-07-30T08:41:08.653Z,2.90
2022-07-30T08:43:37.572Z,3.30
2022-07-30T08:46:10.473Z,3.28
2022-07-30T08:48:51.398Z,3.90
2022-07-30T08:51:20.029Z,3.53
2022-07-30T08:54:07.726Z,3.60
2022-07-30T08:56:36.791Z,2.70
2022-07-30T08:59:05.534Z,3.00
2022-07-30T09:01:33.597Z,2.80
2022-07-30T09:04:00.814Z,3.47
2022-07-30T09:06:29.177Z,3.80
2022-07-30T09:08:56.412Z,3.80
2022-07-30T09:11:23.577Z,3.92
2022-07-30T09:13:51.632Z,2.88
2022-07-30T09:16:25.304Z,2.67
2022-07-30T09:18:54.977Z,2.80
2022-07-30T09:21:25.174Z,3.05
2022-07-30T09:24:13.334Z,2.55
2022-07-30T09:27:10.037Z,3.50
2022-07-30T09:30:01.806Z,4.13
2022-07-30T09:32:56.314Z,4.53
2022-07-30T09:35:44.128Z,3.90
2022-07-30T09:38:13.135Z,3.50
2022-07-30T09:41:23.036Z,3.88
2022-07-30T09:44:08.840Z,4.28
2022-07-30T09:46:48.017Z,4.18
2022-07-30T09:49:30.485Z,4.25
2022-07-30T09:51:58.475Z,3.80
2022-07-30T09:54:52.726Z,4.38
2022-07-30T10:00:24.414Z,4.25
2022-07-30T10:03:33.857Z,4.57
2022-07-30T10:06:33.801Z,4.43
2022-07-30T10:09:14.132Z,4.03
2022-07-30T10:11:44.705Z,3.67
2022-07-30T10:14:12.807Z,3.30
2022-07-30T10:16:41.607Z,4.25
2022-07-30T10:19:18.238Z,3.22
2022-07-30T10:22:10.342Z,3.95
2022-07-30T10:24:57.445Z,3.65
2022-07-30T10:27:47.036Z,3.30
2022-07-30T10:30:27.950Z,2.10
2022-07-30T10:32:59.765Z,2.17
2022-07-30T10:35:34.879Z,2.33
2022-07-30T10:38:14.017Z,1.67
2022-07-30T10:40:55.748Z,1.52
2022-07-30T10:44:03.025Z,1.77
2022-07-30T10:46:42.924Z,2.00
2022-07-30T10:49:19.044Z,2.47
2022-07-30T10:51:50.150Z,1.88
2022-07-30T10:54:39.940Z,1.52
2022-07-30T10:57:31.741Z,2.28
2022-07-30T11:00:00.538Z,1.98
2022-07-30T11:02:31.240Z,1.83
2022-07-30T11:05:18.651Z,1.40
2022-07-30T11:08:36.027Z,1.80
2022-07-30T11:11:59.449Z,1.88
2022-07-30T11:14:13.061Z,1.60
2022-07-30T11:17:05.407Z,1.40
2022-07-30T11:19:53.222Z,1.42
2022-07-30T11:22:29.791Z,1.35
2022-07-30T11:24:57.722Z,1.35
2022-07-30T11:27:41.812Z,2.00
2022-07-30T11:30:18.785Z,1.63
2022-07-30T11:32:48.779Z,1.30
2022-07-30T11:35:23.635Z,1.83
2022-07-30T11:38:18.934Z,1.98
2022-07-30T11:40:49.294Z,2.33
2022-07-30T11:43:35.948Z,1.90
2022-07-30T11:46:28.516Z,1.70
2022-07-30T11:48:58.620Z,1.58
2022-07-30T11:51:26.824Z,1.25
2022-07-30T11:54:10.700Z,1.65
2022-07-30T11:59:08.233Z,1.63
2022-07-30T12:01:50.713Z,1.63
2022-07-30T12:04:18.623Z,1.42
2022-07-30T12:06:48.688Z,1.20
2022-07-30T12:09:30.306Z,1.30
2022-07-30T12:11:58.497Z,1.48
2022-07-30T12:14:38.792Z,1.30
2022-07-30T12:17:06.023Z,1.42
2022-07-30T12:19:48.977Z,1.00
2022-07-30T12:22:16.364Z,1.17
2022-07-30T12:24:43.484Z,1.10
2022-07-30T12:27:10.776Z,1.40
2022-07-30T12:29:38.338Z,1.10
2022-07-30T12:32:06.050Z,1.25
2022-07-30T12:34:33.752Z,1.30
2022-07-30T12:37:10.557Z,1.27
2022-07-30T12:39:37.776Z,1.10
2022-07-30T12:42:05.141Z,1.10
2022-07-30T12:44:46.224Z,1.20
2022-07-30T12:47:29.743Z,1.00
2022-07-30T12:50:00.851Z,1.50
2022-07-30T12:52:35.179Z,1.17
2022-07-30T12:58:02.886Z,1.25
2022-07-30T13:00:54.839Z,1.08
2022-07-30T13:03:24.970Z,1.25
2022-07-30T13:05:55.473Z,1.33
2022-07-30T13:08:56.189Z,1.00
2022-07-30T13:11:27.979Z,1.30
2022-07-30T13:13:55.432Z,1.38
2022-07-30T13:16:24.597Z,1.05
2022-07-30T13:18:51.712Z,1.50
2022-07-30T13:21:18.757Z,1.40
2022-07-30T13:23:49.339Z,1.20
2022-07-30T13:26:16.473Z,1.30
2022-07-30T13:28:46.598Z,1.30
2022-07-30T13:31:14.684Z,1.02
2022-07-30T13:33:42.944Z,1.02
2022-07-30T13:36:10.504Z,1.65
2022-07-30T13:38:37.681Z,1.20
2022-07-30T13:41:05.708Z,1.20
2022-07-30T13:43:33.808Z,1.10
2022-07-30T13:46:03.782Z,1.00
2022-07-30T13:48:35.777Z,1.25
2022-07-30T13:51:05.261Z,1.00
2022-07-30T13:53:33.166Z,1.25
2022-07-30T13:56:00.450Z,1.20
2022-07-30T13:58:36.238Z,1.20
2022-07-30T14:01:03.717Z,1.00
2022-07-30T14:03:30.856Z,1.10
2022-07-30T14:06:10.758Z,1.30
2022-07-30T14:08:42.739Z,1.30
2022-07-30T14:11:09.941Z,1.02
2022-07-30T14:13:37.879Z,1.10
2022-07-30T14:16:13.878Z,1.27
2022-07-30T14:18:49.972Z,1.20
2022-07-30T14:21:17.047Z,1.20
2022-07-30T14:23:44.172Z,1.17
2022-07-30T14:26:12.303Z,1.10
2022-07-30T14:28:39.390Z,1.20
2022-07-30T14:31:06.536Z,1.42
2022-07-30T14:33:33.675Z,1.20
2022-07-30T14:36:00.729Z,1.25
2022-07-30T14:38:28.939Z,1.23
2022-07-30T14:40:56.303Z,1.20
2022-07-30T14:43:24.895Z,1.00
2022-07-30T14:45:53.365Z,1.55
2022-07-30T14:48:20.599Z,0.93
2022-07-30T14:51:12.129Z,1.23
2022-07-30T14:53:35.218Z,1.10
2022-07-30T14:56:02.368Z,1.13
2022-07-30T14:58:33.731Z,1.23
2022-07-30T15:01:15.776Z,1.20
2022-07-30T15:03:47.620Z,1.35
2022-07-30T15:06:15.535Z,1.40
2022-07-30T15:08:43.293Z,1.30
2022-07-30T15:11:10.459Z,1.10
2022-07-30T15:13:49.714Z,1.10
2022-07-30T15:16:19.035Z,1.33
2022-07-30T15:18:46.678Z,1.38
2022-07-30T15:21:14.309Z,1.13
2022-07-30T15:23:41.879Z,1.17
2022-07-30T15:26:09.087Z,1.20
2022-07-30T15:28:36.215Z,1.10
2022-07-30T15:31:04.908Z,1.55
2022-07-30T15:33:36.106Z,1.60
2022-07-30T15:36:04.755Z,1.27
2022-07-30T15:38:33.928Z,1.20
2022-07-30T15:41:02.137Z,2.38
2022-07-30T15:43:29.396Z,1.05
2022-07-30T15:45:56.743Z,1.27
2022-07-30T15:48:27.359Z,1.40
2022-07-30T15:51:03.305Z,1.20
2022-07-30T15:53:33.676Z,1.80
2022-07-30T15:56:01.955Z,1.55
2022-07-30T15:58:29.159Z,1.30
2022-07-30T16:00:56.566Z,1.25
2022-07-30T16:03:24.002Z,1.10
2022-07-30T16:05:52.935Z,1.20
2022-07-30T16:08:21.448Z,1.67
2022-07-30T16:10:49.757Z,1.40
2022-07-30T16:13:16.918Z,1.50
2022-07-30T16:15:44.841Z,1.30
2022-07-30T16:18:12.066Z,1.20
2022-07-30T16:20:39.198Z,1.17
2022-07-30T16:23:12.021Z,1.40
2022-07-30T16:25:41.139Z,1.20
2022-07-30T16:28:08.330Z,1.25
2022-07-30T16:30:35.421Z,1.35
2022-07-30T16:33:16.611Z,1.35
2022-07-30T16:35:48.710Z,1.23
2022-07-30T16:38:16.933Z,1.33
2022-07-30T16:40:44.393Z,1.00
2022-07-30T16:43:11.752Z,1.20
2022-07-30T16:45:38.938Z,1.33
2022-07-30T16:48:06.539Z,1.40
2022-07-30T16:50:33.767Z,1.05
2022-07-30T16:53:00.888Z,1.23
2022-07-30T16:55:28.039Z,1.25
2022-07-30T16:57:55.107Z,1.40
2022-07-30T17:00:22.360Z,1.52
2022-07-30T17:02:51.646Z,1.40
2022-07-30T17:05:18.798Z,1.58
2022-07-30T17:07:46.102Z,1.17
2022-07-30T17:10:13.295Z,1.50
2022-07-30T17:12:41.944Z,1.05
2022-07-30T17:15:18.053Z,1.50
2022-07-30T17:17:45.980Z,1.60
2022-07-30T17:20:14.521Z,6.57
2022-07-30T17:22:43.156Z,1.30
2022-07-30T17:25:10.548Z,1.70
2022-07-30T17:27:38.004Z,1.50
2022-07-30T17:30:06.197Z,1.65
2022-07-30T17:32:33.979Z,1.48
2022-07-30T17:35:01.262Z,1.60
2022-07-30T17:37:28.454Z,1.40
2022-07-30T17:40:06.051Z,1.50
2022-07-30T17:42:45.389Z,1.50
2022-07-30T17:45:14.089Z,1.70
2022-07-30T17:47:41.238Z,2.20
2022-07-30T17:50:10.396Z,1.63
2022-07-30T17:52:39.783Z,1.55
2022-07-30T17:55:11.195Z,1.70
2022-07-30T17:57:38.622Z,1.40
2022-07-30T18:00:09.503Z,1.73
2022-07-30T18:02:36.741Z,1.60
2022-07-30T18:05:04.245Z,1.40
2022-07-30T18:07:31.306Z,1.40
2022-07-30T18:09:58.497Z,1.50
2022-07-30T18:12:25.565Z,1.60
2022-07-30T18:14:53.634Z,1.60
2022-07-30T18:17:20.691Z,1.42
2022-07-30T18:19:47.773Z,1.48
2022-07-30T18:22:16.195Z,1.38
2022-07-30T18:24:55.326Z,1.60
2022-07-30T18:27:22.394Z,1.55
2022-07-30T18:29:51.438Z,1.60
2022-07-30T18:32:18.729Z,1.60
2022-07-30T18:34:45.773Z,1.50
2022-07-30T18:37:12.825Z,1.65
2022-07-30T18:39:39.850Z,1.40
2022-07-30T18:42:07.520Z,1.83
2022-07-30T18:44:34.823Z,1.30
2022-07-30T18:47:02.258Z,1.50
2022-07-30T18:49:37.736Z,1.63
2022-07-30T18:52:07.649Z,1.45
2022-07-30T18:54:36.304Z,1.60
2022-07-30T18:57:05.304Z,1.50
2022-07-30T18:59:32.715Z,1.50
2022-07-30T19:02:02.056Z,1.67
2022-07-30T19:04:29.289Z,1.48
2022-07-30T19:06:57.472Z,1.33
2022-07-30T19:09:24.708Z,1.50
2022-07-30T19:11:51.767Z,1.50
2022-07-30T19:14:19.286Z,1.45
2022-07-30T19:16:46.409Z,1.50
2022-07-30T19:19:14.807Z,1.70
2022-07-30T19:21:42.731Z,1.70
2022-07-30T19:24:10.292Z,1.60
2022-07-30T19:26:39.642Z,1.85
2022-07-30T19:29:08.016Z,1.92
2022-07-30T19:31:35.773Z,2.28
2022-07-30T19:34:03.267Z,2.50
2022-07-30T19:36:30.408Z,2.28
2022-07-30T19:39:07.723Z,1.90
2022-07-30T19:41:41.073Z,2.10
2022-07-30T19:44:10.464Z,1.90
2022-07-30T19:46:38.116Z,1.60
2022-07-30T19:49:06.789Z,1.90
2022-07-30T19:52:11.343Z,2.65
2022-07-30T19:54:21.756Z,1.63
2022-07-30T19:56:48.945Z,1.85
2022-07-30T19:59:18.217Z,2.10
2022-07-30T20:01:45.348Z,2.17
2022-07-30T20:04:19.929Z,2.42
2022-07-30T20:06:49.905Z,2.10
2022-07-30T20:09:17.343Z,2.00
2022-07-30T20:11:46.504Z,2.42
2022-07-30T20:14:16.301Z,1.83
2022-07-30T20:16:43.981Z,2.13
2022-07-30T20:19:15.727Z,1.80
2022-07-30T20:21:57.760Z,2.10
2022-07-30T20:24:26.455Z,2.00
2022-07-30T20:26:53.643Z,2.15
2022-07-30T20:29:20.986Z,1.98
2022-07-30T20:31:49.742Z,2.20
2022-07-30T20:34:20.675Z,2.08
2022-07-30T20:36:51.346Z,1.98
2022-07-30T20:39:21.885Z,2.33
2022-07-30T20:41:50.036Z,1.88
2022-07-30T20:44:23.355Z,2.70
2022-07-30T20:49:24.109Z,2.10
2022-07-30T20:52:09.710Z,1.70
2022-07-30T20:54:37.947Z,2.17
2022-07-30T20:57:15.620Z,2.28
2022-07-30T21:02:30.203Z,2.00
2022-07-30T21:04:59.819Z,2.05
2022-07-30T21:07:27.195Z,1.90
2022-07-30T21:10:04.502Z,2.33
2022-07-30T21:12:36.337Z,2.30
2022-07-30T21:15:23.767Z,2.63
2022-07-30T21:17:52.430Z,2.50
2022-07-30T21:20:27.720Z,2.65
2022-07-30T21:23:02.254Z,2.08
2022-07-30T21:25:32.393Z,2.08
2022-07-30T21:28:02.807Z,2.40
2022-07-30T21:30:32.711Z,2.20
2022-07-30T21:32:59.945Z,2.20
2022-07-30T21:35:31.720Z,2.10
2022-07-30T21:37:59.485Z,2.53
2022-07-30T21:40:27.675Z,2.50
2022-07-30T21:42:56.322Z,2.25
2022-07-30T21:45:23.907Z,2.47
2022-07-30T21:48:07.478Z,2.25
2022-07-30T21:50:37.925Z,2.33
2022-07-30T21:53:05.350Z,2.13
2022-07-30T21:55:33.260Z,2.15
2022-07-30T21:58:00.614Z,2.10
2022-07-30T22:01:00.818Z,1.95
2022-07-30T22:04:04.806Z,2.50
2022-07-30T22:06:29.083Z,2.40
2022-07-30T22:08:57.381Z,2.30
2022-07-30T22:11:24.496Z,2.05
2022-07-30T22:14:10.903Z,2.72
2022-07-30T22:16:38.363Z,2.30
2022-07-30T22:19:14.844Z,1.90
2022-07-30T22:21:46.560Z,2.03
2022-07-30T22:24:28.859Z,2.30
2022-07-30T22:27:01.658Z,2.40
2022-07-30T22:29:38.658Z,2.30
2022-07-30T22:32:06.799Z,2.10
2022-07-30T22:34:35.116Z,2.10
2022-07-30T22:37:02.240Z,2.20
2022-07-30T22:39:50.337Z,2.03
2022-07-30T22:42:16.343Z,2.40
2022-07-30T22:44:46.061Z,2.25
2022-07-30T22:47:21.729Z,2.33
2022-07-30T22:50:02.987Z,2.30
2022-07-30T22:52:37.725Z,2.45
2022-07-30T22:55:09.142Z,2.33
2022-07-30T22:57:40.074Z,2.35
2022-07-30T23:00:12.167Z,2.42
2022-07-30T23:02:41.591Z,2.20
2022-07-30T23:05:10.286Z,2.35
2022-07-30T23:07:40.725Z,2.10
2022-07-30T23:10:17.930Z,2.20
2022-07-30T23:12:26.632Z,2.40
2022-07-30T23:12:53.683Z,2.10
2022-07-30T23:15:22.387Z,2.13
2022-07-30T23:17:49.412Z,2.15
2022-07-30T23:20:20.416Z,2.30
2022-07-30T23:22:48.515Z,2.10
2022-07-30T23:25:15.811Z,2.28
2022-07-30T23:27:43.125Z,2.20
2022-07-30T23:30:11.557Z,2.33
2022-07-30T23:32:40.024Z,2.10
2022-07-30T23:35:09.322Z,2.50
2022-07-30T23:37:48.488Z,2.35
2022-07-30T23:40:19.148Z,2.58
2022-07-30T23:42:49.995Z,2.47
2022-07-30T23:45:18.223Z,2.47
2022-07-30T23:48:00.880Z,2.70
2022-07-30T23:50:34.294Z,2.65
2022-07-30T23:53:02.700Z,3.22
2022-07-30T23:55:32.027Z,2.53
2022-07-30T23:58:00.234Z,2.80
